KERI/ERI METAR and TAF weather

Enter ICAO airport designator
Station Type Date Time Source
KERI METAR 2018/12/10 12:51 UTC NOAA

KERI 101251Z 17003KT 10SM OVC023 M01/M06 A3020 RMK AO2 SLP238 T10111056


Station Type Date Time Source
KERI Decoded METAR 2018/12/10 12:51 UTC NOAA

ERIE INTERNATIONAL AIRPORT, PA, United States (KERI) 42-05N 080-11W 222M
Dec 10, 2018 - 07:51 AM EST / 2018.12.10 1251 UTC
Wind: from the S (170 degrees) at 3 MPH (3 KT):0
Visibility: 10 mile(s):0
Sky conditions: overcast
Temperature: 30.0 F (-1.1 C)
Dew Point: 21.9 F (-5.6 C)
Relative Humidity: 71%
Pressure (altimeter): 30.2 in. Hg (1022 hPa)
ob: KERI 101251Z 17003KT 10SM OVC023 M01/M06 A3020 RMK AO2 SLP238 T10111056
cycle: 13

Station Type Date Time Source
KERI TAF 2018/12/10 12:30 UTC NOAA

TAF KERI 101129Z 1012/1112 VRB04KT P6SM OVC025
FM101700 31005KT P6SM OVC018
FM102300 22008KT P6SM OVC020


Example: see airport list